createdAt,value
2022-09-15T00:01:18.347Z,78.90
2022-09-15T00:03:47.619Z,78.97
2022-09-15T00:06:15.844Z,79.07
2022-09-15T00:08:44.178Z,79.16
2022-09-15T00:11:22.761Z,79.06
2022-09-15T00:13:52.462Z,79.06
2022-09-15T00:16:23.140Z,79.16
2022-09-15T00:18:51.474Z,79.09
2022-09-15T00:21:22.507Z,79.11
2022-09-15T00:23:51.105Z,79.10
2022-09-15T00:26:22.205Z,79.18
2022-09-15T00:28:50.919Z,79.17
2022-09-15T00:31:21.609Z,79.10
2022-09-15T00:33:52.322Z,79.20
2022-09-15T00:36:21.698Z,79.33
2022-09-15T00:38:50.454Z,79.33
2022-09-15T00:41:20.246Z,79.40
2022-09-15T00:43:47.999Z,79.43
2022-09-15T00:46:19.197Z,79.50
2022-09-15T00:49:13.950Z,79.37
2022-09-15T00:52:04.454Z,79.41
2022-09-15T00:54:40.859Z,79.58
2022-09-15T00:57:18.023Z,79.68
2022-09-15T00:59:48.797Z,79.53
2022-09-15T01:02:21.967Z,79.56
2022-09-15T01:04:57.409Z,79.60
2022-09-15T01:07:38.810Z,79.49
2022-09-15T01:10:18.407Z,79.55
2022-09-15T01:12:46.879Z,79.53
2022-09-15T01:15:16.085Z,79.65
2022-09-15T01:18:12.737Z,79.82
2022-09-15T01:20:57.319Z,79.78
2022-09-15T01:23:34.079Z,79.70
2022-09-15T01:26:20.283Z,79.78
2022-09-15T01:29:21.736Z,79.79
2022-09-15T01:32:26.170Z,79.92
2022-09-15T01:35:15.319Z,80.07
2022-09-15T01:37:50.837Z,80.28
2022-09-15T01:40:20.218Z,80.23
2022-09-15T01:42:51.101Z,80.34
2022-09-15T01:45:24.008Z,80.28
2022-09-15T01:47:57.139Z,80.14
2022-09-15T01:50:31.655Z,80.24
2022-09-15T01:53:04.165Z,80.13
2022-09-15T01:55:41.943Z,80.11
2022-09-15T01:58:09.951Z,80.19
2022-09-15T02:00:43.950Z,80.06
2022-09-15T02:03:21.798Z,80.18
2022-09-15T02:06:02.223Z,80.11
2022-09-15T02:08:45.405Z,79.99
2022-09-15T02:11:26.032Z,80.10
2022-09-15T02:14:11.602Z,79.99
2022-09-15T02:16:43.940Z,80.09
2022-09-15T02:19:31.809Z,80.15
2022-09-15T02:22:11.114Z,80.34
2022-09-15T02:24:44.521Z,80.17
2022-09-15T02:27:24.594Z,80.19
2022-09-15T02:29:56.342Z,80.22
2022-09-15T02:32:28.158Z,80.38
2022-09-15T02:34:59.324Z,80.41
2022-09-15T02:37:27.654Z,80.35
2022-09-15T02:39:59.507Z,80.40
2022-09-15T02:42:30.415Z,80.45
2022-09-15T02:45:00.904Z,80.49
2022-09-15T02:47:30.437Z,80.57
2022-09-15T02:49:58.644Z,80.55
2022-09-15T02:52:26.534Z,80.65
2022-09-15T02:54:54.472Z,80.54
2022-09-15T02:57:22.252Z,80.59
2022-09-15T03:00:08.614Z,80.64
2022-09-15T03:02:37.328Z,80.74
2022-09-15T03:05:07.209Z,80.75
2022-09-15T03:07:37.072Z,80.72
2022-09-15T03:10:09.657Z,80.86
2022-09-15T03:12:42.113Z,80.95
2022-09-15T03:15:12.414Z,80.94
2022-09-15T03:17:43.102Z,81.07
2022-09-15T03:20:14.183Z,81.06
2022-09-15T03:22:42.275Z,81.18
2022-09-15T03:25:11.424Z,81.27
2022-09-15T03:27:39.884Z,81.46
2022-09-15T03:30:09.830Z,81.43
2022-09-15T03:32:37.611Z,81.61
2022-09-15T03:35:07.239Z,81.59
2022-09-15T03:37:35.430Z,81.74
2022-09-15T03:40:04.405Z,81.76
2022-09-15T03:42:32.748Z,81.88
2022-09-15T03:45:00.453Z,81.97
2022-09-15T03:47:28.358Z,82.09
2022-09-15T03:49:56.104Z,82.10
2022-09-15T03:52:23.822Z,82.17
2022-09-15T03:54:51.795Z,82.11
2022-09-15T03:57:19.479Z,82.23
2022-09-15T03:59:47.183Z,82.13
2022-09-15T04:02:16.118Z,82.07
2022-09-15T04:04:44.017Z,82.13
2022-09-15T04:07:11.700Z,82.15
2022-09-15T04:09:39.597Z,82.15
2022-09-15T04:12:08.062Z,82.13
2022-09-15T04:14:35.743Z,82.05
2022-09-15T04:17:03.809Z,82.09
2022-09-15T04:19:31.609Z,81.93
2022-09-15T04:21:59.358Z,82.16
2022-09-15T04:24:27.337Z,81.98
2022-09-15T04:26:55.109Z,81.99
2022-09-15T04:29:23.420Z,82.02
2022-09-15T04:31:53.195Z,81.90
2022-09-15T04:34:21.011Z,81.84
2022-09-15T04:36:48.664Z,81.94
2022-09-15T04:39:16.702Z,81.97
2022-09-15T04:41:44.560Z,81.96
2022-09-15T04:44:12.236Z,81.88
2022-09-15T04:46:40.146Z,81.96
2022-09-15T04:49:08.156Z,81.78
2022-09-15T04:51:35.874Z,81.86
2022-09-15T04:54:03.839Z,81.73
2022-09-15T04:56:31.741Z,81.82
2022-09-15T04:59:03.946Z,81.83
2022-09-15T05:01:35.590Z,81.88
2022-09-15T05:04:04.465Z,81.82
2022-09-15T05:06:34.989Z,81.80
2022-09-15T05:09:09.997Z,81.88
2022-09-15T05:11:38.717Z,81.77
2022-09-15T05:14:07.107Z,81.88
2022-09-15T05:16:35.142Z,81.89
2022-09-15T05:19:04.862Z,81.86
2022-09-15T05:21:33.336Z,81.96
2022-09-15T05:24:01.359Z,81.92
2022-09-15T05:26:29.860Z,81.92
2022-09-15T05:28:58.151Z,81.77
2022-09-15T05:31:31.274Z,81.79
2022-09-15T05:34:01.701Z,81.70
2022-09-15T05:36:30.349Z,81.84
2022-09-15T05:38:58.981Z,81.73
2022-09-15T05:41:28.327Z,81.68
2022-09-15T05:43:58.122Z,81.60
2022-09-15T05:46:27.501Z,81.54
2022-09-15T05:48:57.316Z,81.40
2022-09-15T05:51:25.696Z,81.31
2022-09-15T05:53:53.467Z,81.30
2022-09-15T05:56:21.704Z,81.20
2022-09-15T05:58:49.979Z,81.15
2022-09-15T06:01:27.082Z,81.08
2022-09-15T06:03:55.962Z,80.98
2022-09-15T06:06:25.561Z,81.19
2022-09-15T06:08:58.409Z,80.97
2022-09-15T06:11:30.307Z,81.06
2022-09-15T06:14:03.529Z,80.90
2022-09-15T06:16:35.437Z,80.86
2022-09-15T06:19:03.988Z,80.61
2022-09-15T06:21:33.035Z,80.74
2022-09-15T06:24:07.241Z,80.66
2022-09-15T06:26:35.329Z,80.73
2022-09-15T06:29:05.338Z,80.57
2022-09-15T06:31:34.567Z,80.51
2022-09-15T06:34:04.250Z,80.30
2022-09-15T06:36:32.936Z,79.94
2022-09-15T06:39:00.888Z,79.64
2022-09-15T06:41:52.506Z,79.69
2022-09-15T06:44:20.564Z,79.57
2022-09-15T06:46:48.810Z,79.43
2022-09-15T06:49:17.189Z,79.54
2022-09-15T06:51:45.199Z,79.06
2022-09-15T06:54:14.828Z,78.91
2022-09-15T06:56:43.198Z,78.67
2022-09-15T06:59:12.628Z,78.78
2022-09-15T07:01:43.941Z,78.50
2022-09-15T07:04:11.830Z,78.10
2022-09-15T07:06:40.003Z,78.12
2022-09-15T07:09:08.092Z,77.68
2022-09-15T07:11:35.790Z,77.51
2022-09-15T07:14:04.081Z,76.95
2022-09-15T07:16:32.286Z,76.89
2022-09-15T07:19:02.143Z,76.96
2022-09-15T07:21:29.862Z,77.22
2022-09-15T07:23:58.254Z,76.75
2022-09-15T07:26:28.211Z,76.83
2022-09-15T07:28:59.479Z,76.85
2022-09-15T07:31:30.240Z,76.72
2022-09-15T07:34:02.561Z,76.34
2022-09-15T07:36:31.303Z,76.22
2022-09-15T07:38:59.271Z,76.04
2022-09-15T07:41:29.308Z,75.69
2022-09-15T07:43:59.139Z,75.15
2022-09-15T07:46:30.347Z,74.18
2022-09-15T07:48:58.357Z,74.31
2022-09-15T07:51:26.849Z,74.24
2022-09-15T07:53:55.495Z,73.68
2022-09-15T07:56:23.927Z,73.33
2022-09-15T07:58:52.244Z,73.26
2022-09-15T08:01:22.736Z,72.86
2022-09-15T08:03:52.522Z,72.38
2022-09-15T08:06:29.189Z,72.20
2022-09-15T08:09:00.800Z,71.77
2022-09-15T08:11:29.343Z,71.69
2022-09-15T08:14:02.369Z,71.82
2022-09-15T08:16:30.451Z,71.53
2022-09-15T08:18:58.562Z,71.11
2022-09-15T08:21:28.472Z,70.31
2022-09-15T08:24:00.848Z,69.08
2022-09-15T08:26:29.886Z,68.36
2022-09-15T08:28:58.150Z,67.28
2022-09-15T08:31:26.587Z,67.10
2022-09-15T08:33:56.270Z,66.10
2022-09-15T08:36:27.882Z,66.61
2022-09-15T08:38:56.556Z,66.39
2022-09-15T08:41:51.669Z,65.57
2022-09-15T08:44:38.509Z,64.67
2022-09-15T08:47:17.507Z,65.11
2022-09-15T08:50:08.020Z,65.34
2022-09-15T08:52:47.096Z,64.12
2022-09-15T08:55:45.063Z,64.04
2022-09-15T08:58:19.305Z,62.67
2022-09-15T09:00:49.143Z,61.60
2022-09-15T09:03:48.841Z,61.30
2022-09-15T09:06:35.550Z,58.38
2022-09-15T09:09:41.325Z,59.15
2022-09-15T09:12:32.411Z,59.57
2022-09-15T09:15:47.823Z,59.88
2022-09-15T09:18:53.237Z,58.24
2022-09-15T09:21:30.166Z,58.54
2022-09-15T09:24:17.818Z,58.33
2022-09-15T09:26:51.265Z,57.00
2022-09-15T09:29:24.348Z,57.60
2022-09-15T09:31:55.964Z,57.44
2022-09-15T09:34:38.341Z,57.15
2022-09-15T09:37:11.453Z,56.87
2022-09-15T09:39:39.269Z,57.05
2022-09-15T09:42:14.158Z,54.99
2022-09-15T09:44:42.765Z,55.43
2022-09-15T09:47:12.393Z,55.31
2022-09-15T09:50:00.802Z,55.22
2022-09-15T09:52:36.963Z,54.51
2022-09-15T09:55:27.355Z,53.61
2022-09-15T09:58:12.370Z,54.07
2022-09-15T10:00:41.257Z,54.63
2022-09-15T10:03:12.827Z,54.75
2022-09-15T10:05:41.537Z,54.63
2022-09-15T10:08:20.856Z,54.38
2022-09-15T10:10:54.257Z,54.99
2022-09-15T10:13:22.807Z,55.45
2022-09-15T10:15:57.441Z,55.91
2022-09-15T10:18:33.309Z,56.08
2022-09-15T10:21:04.417Z,54.24
2022-09-15T10:23:34.253Z,54.23
2022-09-15T10:26:22.596Z,54.50
2022-09-15T10:29:17.310Z,54.71
2022-09-15T10:31:46.121Z,54.64
2022-09-15T10:34:32.838Z,54.82
2022-09-15T10:37:48.268Z,55.17
2022-09-15T10:40:34.305Z,54.77
2022-09-15T10:43:30.426Z,54.42
2022-09-15T10:46:42.639Z,55.15
2022-09-15T10:49:43.667Z,55.05
2022-09-15T10:52:17.657Z,55.46
2022-09-15T10:54:45.338Z,55.19
2022-09-15T10:57:40.604Z,54.02
2022-09-15T11:00:15.630Z,54.33
2022-09-15T11:03:01.120Z,54.31
2022-09-15T11:05:43.185Z,53.78
2022-09-15T11:08:25.370Z,53.92
2022-09-15T11:11:14.241Z,54.37
2022-09-15T11:13:56.796Z,54.39
2022-09-15T11:16:49.212Z,54.10
2022-09-15T11:19:50.938Z,54.16
2022-09-15T11:22:49.280Z,54.45
2022-09-15T11:25:21.233Z,54.52
2022-09-15T11:28:06.512Z,54.33
2022-09-15T11:30:42.459Z,54.24
2022-09-15T11:33:19.528Z,54.65
2022-09-15T11:36:02.486Z,54.82
2022-09-15T11:39:01.993Z,54.43
2022-09-15T11:41:56.757Z,54.43
2022-09-15T11:44:33.662Z,54.19
2022-09-15T11:47:31.542Z,54.91
2022-09-15T11:50:05.542Z,54.58
2022-09-15T11:53:03.483Z,54.68
2022-09-15T11:55:56.686Z,55.66
2022-09-15T11:58:33.516Z,55.60
2022-09-15T12:01:19.273Z,55.35
2022-09-15T12:03:56.947Z,55.38
2022-09-15T12:06:30.510Z,54.50
2022-09-15T12:09:01.371Z,54.56
2022-09-15T12:11:32.311Z,55.27
2022-09-15T12:14:00.759Z,55.46
2022-09-15T12:16:30.073Z,54.19
2022-09-15T12:19:36.668Z,53.79
2022-09-15T12:22:44.414Z,54.41
2022-09-15T12:25:19.993Z,54.50
2022-09-15T12:28:22.238Z,54.87
2022-09-15T12:31:13.677Z,54.42
2022-09-15T12:34:16.373Z,55.31
2022-09-15T12:36:49.680Z,55.59
2022-09-15T12:39:32.398Z,55.62
2022-09-15T12:42:00.157Z,55.65
2022-09-15T12:44:41.625Z,55.92
2022-09-15T12:47:30.009Z,55.67
2022-09-15T12:50:03.718Z,55.55
2022-09-15T12:52:32.052Z,55.83
2022-09-15T12:55:03.508Z,55.53
2022-09-15T12:57:36.492Z,55.14
2022-09-15T13:00:23.420Z,54.96
2022-09-15T13:02:51.919Z,55.04
2022-09-15T13:05:54.449Z,55.12
2022-09-15T13:08:25.313Z,55.71
2022-09-15T13:11:09.573Z,55.66
2022-09-15T13:13:50.361Z,55.82
2022-09-15T13:16:26.524Z,55.79
2022-09-15T13:19:07.351Z,56.29
2022-09-15T13:21:40.167Z,55.64
2022-09-15T13:24:17.604Z,55.69
2022-09-15T13:26:52.084Z,55.65
2022-09-15T13:29:22.253Z,55.72
2022-09-15T13:32:07.171Z,55.84
2022-09-15T13:35:20.925Z,56.09
2022-09-15T13:38:12.589Z,56.51
2022-09-15T13:41:27.570Z,57.00
2022-09-15T13:44:18.043Z,57.39
2022-09-15T13:46:46.128Z,56.68
2022-09-15T13:49:36.852Z,56.24
2022-09-15T13:52:21.060Z,55.78
2022-09-15T13:55:21.734Z,55.32
2022-09-15T14:01:02.360Z,55.25
2022-09-15T14:03:57.372Z,54.93
2022-09-15T14:06:40.094Z,55.20
2022-09-15T14:09:15.127Z,55.68
2022-09-15T14:11:46.374Z,55.92
2022-09-15T14:14:44.280Z,55.85
2022-09-15T14:17:24.526Z,55.92
2022-09-15T14:19:57.090Z,56.06
2022-09-15T14:22:31.514Z,55.64
2022-09-15T14:25:05.501Z,55.80
2022-09-15T14:27:35.551Z,55.82
2022-09-15T14:30:09.470Z,55.18
2022-09-15T14:32:43.993Z,55.05
2022-09-15T14:35:23.265Z,55.26
2022-09-15T14:37:57.796Z,55.66
2022-09-15T14:40:30.463Z,55.55
2022-09-15T14:42:58.494Z,55.37
2022-09-15T14:48:30.124Z,55.73
2022-09-15T14:51:05.109Z,55.91
2022-09-15T14:53:35.691Z,55.99
2022-09-15T14:56:25.058Z,55.55
2022-09-15T14:58:56.200Z,55.68
2022-09-15T15:01:40.772Z,56.02
2022-09-15T15:04:30.925Z,55.71
2022-09-15T15:07:09.455Z,55.27
2022-09-15T15:09:44.129Z,55.50
2022-09-15T15:12:40.031Z,55.39
2022-09-15T15:15:12.532Z,55.78
2022-09-15T15:17:45.430Z,56.29
2022-09-15T15:20:27.261Z,55.77
2022-09-15T15:23:12.173Z,55.67
2022-09-15T15:25:41.823Z,56.36
2022-09-15T15:28:29.518Z,56.48
2022-09-15T15:31:25.151Z,56.44
2022-09-15T15:34:05.532Z,56.64
2022-09-15T15:36:36.021Z,56.81
2022-09-15T15:39:07.106Z,57.14
2022-09-15T15:41:41.141Z,57.46
2022-09-15T15:44:15.178Z,57.63
2022-09-15T15:46:54.231Z,57.62
2022-09-15T15:49:27.515Z,57.89
2022-09-15T15:51:56.599Z,58.10
2022-09-15T15:54:25.300Z,58.32
2022-09-15T15:56:54.035Z,58.49
2022-09-15T15:59:21.972Z,58.39
2022-09-15T16:01:55.212Z,58.49
2022-09-15T16:04:23.204Z,58.85
2022-09-15T16:06:51.872Z,58.94
2022-09-15T16:09:20.828Z,59.11
2022-09-15T16:11:49.086Z,59.12
2022-09-15T16:14:17.251Z,58.97
2022-09-15T16:16:45.502Z,59.33
2022-09-15T16:19:13.785Z,59.39
2022-09-15T16:21:42.431Z,59.52
2022-09-15T16:24:14.394Z,59.68
2022-09-15T16:26:43.102Z,59.66
2022-09-15T16:29:11.960Z,59.96
2022-09-15T16:31:40.685Z,60.14
2022-09-15T16:34:19.806Z,60.16
2022-09-15T16:36:47.636Z,60.29
2022-09-15T16:39:15.460Z,60.33
2022-09-15T16:41:43.496Z,60.66
2022-09-15T16:44:17.983Z,60.69
2022-09-15T16:46:46.642Z,60.82
2022-09-15T16:49:14.661Z,61.07
2022-09-15T16:51:42.476Z,61.16
2022-09-15T16:54:16.053Z,61.23
2022-09-15T16:56:45.850Z,61.33
2022-09-15T16:59:14.010Z,61.45
2022-09-15T17:01:41.945Z,61.58
2022-09-15T17:04:15.899Z,61.81
2022-09-15T17:06:43.903Z,62.05
2022-09-15T17:09:12.335Z,62.11
2022-09-15T17:11:40.309Z,62.45
2022-09-15T17:14:13.385Z,62.66
2022-09-15T17:16:41.738Z,62.86
2022-09-15T17:19:09.879Z,62.85
2022-09-15T17:21:37.770Z,63.07
2022-09-15T17:24:06.085Z,63.28
2022-09-15T17:26:34.007Z,63.40
2022-09-15T17:29:01.852Z,63.68
2022-09-15T17:31:30.095Z,63.96
2022-09-15T17:33:58.136Z,64.20
2022-09-15T17:36:26.269Z,64.28
2022-09-15T17:38:54.319Z,64.42
2022-09-15T17:41:24.692Z,64.48
2022-09-15T17:43:53.276Z,64.63
2022-09-15T17:46:21.512Z,64.59
2022-09-15T17:48:49.385Z,64.89
2022-09-15T17:51:17.681Z,65.06
2022-09-15T17:53:47.242Z,65.21
2022-09-15T17:56:15.342Z,65.47
2022-09-15T17:58:44.778Z,65.60
2022-09-15T18:01:14.650Z,65.71
2022-09-15T18:03:44.874Z,65.87
2022-09-15T18:06:13.094Z,66.04
2022-09-15T18:08:41.404Z,66.29
2022-09-15T18:11:13.691Z,66.42
2022-09-15T18:13:41.997Z,66.67
2022-09-15T18:16:14.766Z,66.75
2022-09-15T18:18:43.207Z,66.87
2022-09-15T18:21:28.066Z,67.15
2022-09-15T18:23:59.907Z,67.24
2022-09-15T18:26:28.753Z,67.39
2022-09-15T18:28:57.053Z,67.47
2022-09-15T18:31:25.565Z,67.48
2022-09-15T18:33:54.016Z,67.76
2022-09-15T18:36:22.234Z,67.87
2022-09-15T18:38:50.222Z,67.77
2022-09-15T18:41:18.688Z,68.19
2022-09-15T18:43:49.500Z,68.32
2022-09-15T18:46:18.328Z,68.28
2022-09-15T18:48:46.678Z,68.31
2022-09-15T18:51:23.695Z,68.27
2022-09-15T18:53:57.623Z,68.46
2022-09-15T18:56:25.820Z,68.52
2022-09-15T18:58:54.975Z,68.60
2022-09-15T19:01:23.396Z,68.69
2022-09-15T19:03:52.276Z,68.72
2022-09-15T19:06:20.321Z,68.73
2022-09-15T19:08:49.116Z,68.82
2022-09-15T19:11:17.613Z,68.80
2022-09-15T19:13:47.661Z,68.87
2022-09-15T19:16:15.910Z,68.99
2022-09-15T19:18:45.106Z,68.99
2022-09-15T19:21:13.022Z,69.05
2022-09-15T19:23:40.890Z,69.07
2022-09-15T19:26:16.963Z,69.09
2022-09-15T19:28:50.034Z,69.23
2022-09-15T19:31:18.465Z,69.23
2022-09-15T19:33:46.413Z,69.26
2022-09-15T19:36:27.988Z,69.25
2022-09-15T19:39:02.910Z,69.42
2022-09-15T19:41:31.779Z,69.33
2022-09-15T19:44:02.431Z,69.39
2022-09-15T19:46:31.264Z,69.32
2022-09-15T19:48:59.881Z,69.43
2022-09-15T19:51:28.207Z,69.44
2022-09-15T19:53:59.129Z,69.43
2022-09-15T19:56:28.343Z,69.44
2022-09-15T19:58:58.570Z,69.33
2022-09-15T20:01:29.148Z,69.56
2022-09-15T20:06:44.725Z,69.69
2022-09-15T20:09:16.975Z,69.62
2022-09-15T20:11:45.185Z,69.77
2022-09-15T20:14:14.563Z,69.65
2022-09-15T20:16:42.876Z,69.63
2022-09-15T20:19:11.074Z,69.45
2022-09-15T20:21:56.322Z,69.54
2022-09-15T20:24:24.817Z,69.59
2022-09-15T20:26:54.102Z,69.58
2022-09-15T20:29:23.888Z,69.35
2022-09-15T20:31:52.432Z,69.41
2022-09-15T20:34:23.378Z,69.33
2022-09-15T20:36:51.700Z,69.24
2022-09-15T20:39:22.854Z,69.34
2022-09-15T20:41:50.969Z,69.42
2022-09-15T20:44:19.054Z,69.39
2022-09-15T20:46:47.552Z,69.46
2022-09-15T20:49:16.454Z,69.48
2022-09-15T20:51:46.620Z,69.54
2022-09-15T20:54:15.479Z,69.68
2022-09-15T20:56:44.557Z,69.56
2022-09-15T20:59:15.947Z,69.69
2022-09-15T21:01:44.240Z,69.59
2022-09-15T21:04:13.071Z,69.75
2022-09-15T21:06:41.123Z,69.75
2022-09-15T21:09:09.435Z,69.79
2022-09-15T21:11:37.798Z,69.79
2022-09-15T21:14:05.928Z,69.89
2022-09-15T21:16:35.005Z,69.89
2022-09-15T21:19:20.081Z,69.85
2022-09-15T21:21:48.097Z,69.86
2022-09-15T21:24:16.097Z,69.80
2022-09-15T21:27:02.798Z,69.88
2022-09-15T21:29:31.786Z,69.83
2022-09-15T21:32:00.289Z,69.91
2022-09-15T21:34:28.587Z,70.01
2022-09-15T21:36:57.105Z,70.19
2022-09-15T21:39:25.587Z,69.97
2022-09-15T21:41:54.378Z,70.10
2022-09-15T21:44:22.314Z,70.40
2022-09-15T21:46:52.855Z,70.85
2022-09-15T21:49:20.872Z,70.74
2022-09-15T21:51:48.894Z,70.97
2022-09-15T21:54:16.994Z,71.39
2022-09-15T21:56:45.376Z,71.65
2022-09-15T21:59:13.401Z,71.58
2022-09-15T22:01:41.955Z,71.63
2022-09-15T22:04:10.724Z,71.92
2022-09-15T22:06:41.405Z,71.98
2022-09-15T22:09:14.425Z,72.24
2022-09-15T22:11:42.842Z,72.31
2022-09-15T22:14:13.229Z,72.38
2022-09-15T22:16:43.258Z,72.36
2022-09-15T22:19:12.935Z,72.55
2022-09-15T22:21:42.170Z,72.69
2022-09-15T22:24:14.147Z,72.95
2022-09-15T22:26:43.716Z,72.83
2022-09-15T22:29:13.921Z,73.01
2022-09-15T22:31:42.433Z,72.88
2022-09-15T22:34:10.726Z,72.90
2022-09-15T22:36:39.093Z,72.97
2022-09-15T22:39:07.898Z,72.93
2022-09-15T22:41:39.655Z,73.01
2022-09-15T22:44:17.834Z,73.02
2022-09-15T22:46:46.207Z,73.11
2022-09-15T22:49:14.530Z,73.24
2022-09-15T22:51:43.176Z,73.33
2022-09-15T22:54:11.091Z,73.26
2022-09-15T22:56:39.014Z,73.43
2022-09-15T22:59:07.219Z,73.41
2022-09-15T23:01:36.179Z,73.60
2022-09-15T23:04:04.114Z,73.69
2022-09-15T23:06:34.393Z,73.84
2022-09-15T23:09:05.967Z,73.98
2022-09-15T23:11:34.752Z,73.94
2022-09-15T23:14:02.897Z,73.97
2022-09-15T23:16:32.479Z,73.94
2022-09-15T23:19:00.577Z,74.05
2022-09-15T23:21:29.235Z,74.03
2022-09-15T23:23:57.349Z,74.22
2022-09-15T23:26:26.478Z,74.15
2022-09-15T23:28:55.120Z,74.26
2022-09-15T23:31:23.127Z,74.38
2022-09-15T23:33:50.946Z,74.54
2022-09-15T23:36:19.815Z,74.57
2022-09-15T23:38:49.384Z,74.54
2022-09-15T23:41:18.593Z,74.64
2022-09-15T23:43:46.814Z,74.90
2022-09-15T23:46:16.960Z,74.99
2022-09-15T23:48:45.230Z,75.28
2022-09-15T23:51:13.316Z,75.26
2022-09-15T23:53:42.055Z,75.27
2022-09-15T23:56:09.799Z,75.42
2022-09-15T23:58:37.819Z,75.52
